sensor_id;sensor_type;location;lat;lon;timestamp;P1;durP1;ratioP1;P2;durP2;ratioP2
6007;SDS011;3032;49.484;11.112;2023-02-01T00:01:58;5.47;;;4.97;;
6007;SDS011;3032;49.484;11.112;2023-02-01T00:04:25;5.50;;;4.95;;
6007;SDS011;3032;49.484;11.112;2023-02-01T00:06:50;5.97;;;4.97;;
6007;SDS011;3032;49.484;11.112;2023-02-01T00:09:16;5.57;;;5.10;;
6007;SDS011;3032;49.484;11.112;2023-02-01T00:11:41;6.30;;;5.67;;
6007;SDS011;3032;49.484;11.112;2023-02-01T00:14:07;7.57;;;5.97;;
6007;SDS011;3032;49.484;11.112;2023-02-01T00:16:33;5.70;;;4.55;;
6007;SDS011;3032;49.484;11.112;2023-02-01T00:19:03;7.57;;;6.13;;
6007;SDS011;3032;49.484;11.112;2023-02-01T00:21:30;8.35;;;6.25;;
6007;SDS011;3032;49.484;11.112;2023-02-01T00:23:57;6.68;;;6.00;;
6007;SDS011;3032;49.484;11.112;2023-02-01T00:29:02;13.73;;;5.28;;
6007;SDS011;3032;49.484;11.112;2023-02-01T00:31:29;8.38;;;6.38;;
6007;SDS011;3032;49.484;11.112;2023-02-01T00:33:55;7.50;;;6.30;;
6007;SDS011;3032;49.484;11.112;2023-02-01T00:36:20;8.50;;;4.90;;
6007;SDS011;3032;49.484;11.112;2023-02-01T00:38:46;6.87;;;4.93;;
6007;SDS011;3032;49.484;11.112;2023-02-01T00:41:16;7.30;;;6.07;;
6007;SDS011;3032;49.484;11.112;2023-02-01T00:43:43;7.13;;;5.43;;
6007;SDS011;3032;49.484;11.112;2023-02-01T00:46:09;8.20;;;5.53;;
6007;SDS011;3032;49.484;11.112;2023-02-01T00:48:36;6.05;;;5.55;;
6007;SDS011;3032;49.484;11.112;2023-02-01T00:51:03;6.03;;;5.53;;
6007;SDS011;3032;49.484;11.112;2023-02-01T00:53:33;8.05;;;5.20;;
6007;SDS011;3032;49.484;11.112;2023-02-01T00:55:59;5.60;;;4.53;;
6007;SDS011;3032;49.484;11.112;2023-02-01T00:58:26;5.43;;;4.90;;
6007;SDS011;3032;49.484;11.112;2023-02-01T01:03:34;6.28;;;5.10;;
6007;SDS011;3032;49.484;11.112;2023-02-01T01:06:03;5.38;;;4.90;;
6007;SDS011;3032;49.484;11.112;2023-02-01T01:08:30;5.55;;;5.03;;
6007;SDS011;3032;49.484;11.112;2023-02-01T01:10:56;5.07;;;4.57;;
6007;SDS011;3032;49.484;11.112;2023-02-01T01:13:22;4.97;;;4.57;;
6007;SDS011;3032;49.484;11.112;2023-02-01T01:15:48;5.72;;;5.20;;
6007;SDS011;3032;49.484;11.112;2023-02-01T01:18:14;6.30;;;5.70;;
6007;SDS011;3032;49.484;11.112;2023-02-01T01:20:40;9.40;;;4.80;;
6007;SDS011;3032;49.484;11.112;2023-02-01T01:23:07;9.38;;;5.30;;
6007;SDS011;3032;49.484;11.112;2023-02-01T01:25:37;6.78;;;6.18;;
6007;SDS011;3032;49.484;11.112;2023-02-01T01:28:03;7.38;;;6.03;;
6007;SDS011;3032;49.484;11.112;2023-02-01T01:30:29;6.05;;;5.45;;
6007;SDS011;3032;49.484;11.112;2023-02-01T01:32:55;6.17;;;5.60;;
6007;SDS011;3032;49.484;11.112;2023-02-01T01:35:20;6.53;;;5.90;;
6007;SDS011;3032;49.484;11.112;2023-02-01T01:37:46;7.10;;;5.90;;
6007;SDS011;3032;49.484;11.112;2023-02-01T01:40:11;7.03;;;5.90;;
6007;SDS011;3032;49.484;11.112;2023-02-01T01:42:41;8.45;;;6.55;;
6007;SDS011;3032;49.484;11.112;2023-02-01T01:47:48;7.78;;;6.45;;
6007;SDS011;3032;49.484;11.112;2023-02-01T01:50:23;5.78;;;5.22;;
6007;SDS011;3032;49.484;11.112;2023-02-01T01:52:54;5.97;;;5.45;;
6007;SDS011;3032;49.484;11.112;2023-02-01T01:55:22;6.47;;;5.88;;
6007;SDS011;3032;49.484;11.112;2023-02-01T01:57:57;7.45;;;6.20;;
6007;SDS011;3032;49.484;11.112;2023-02-01T02:00:30;5.90;;;5.03;;
6007;SDS011;3032;49.484;11.112;2023-02-01T02:02:59;5.43;;;4.93;;
6007;SDS011;3032;49.484;11.112;2023-02-01T02:05:28;5.70;;;5.10;;
6007;SDS011;3032;49.484;11.112;2023-02-01T02:07:55;6.90;;;5.47;;
6007;SDS011;3032;49.484;11.112;2023-02-01T02:10:23;6.18;;;5.55;;
6007;SDS011;3032;49.484;11.112;2023-02-01T02:13:09;8.45;;;6.10;;
6007;SDS011;3032;49.484;11.112;2023-02-01T02:15:36;6.32;;;5.15;;
6007;SDS011;3032;49.484;11.112;2023-02-01T02:18:13;5.55;;;5.05;;
6007;SDS011;3032;49.484;11.112;2023-02-01T02:34:36;4.57;;;4.18;;
6007;SDS011;3032;49.484;11.112;2023-02-01T02:39:55;4.38;;;3.97;;
6007;SDS011;3032;49.484;11.112;2023-02-01T02:42:42;4.85;;;4.40;;
6007;SDS011;3032;49.484;11.112;2023-02-01T02:45:38;6.32;;;4.38;;
6007;SDS011;3032;49.484;11.112;2023-02-01T02:51:13;6.90;;;5.25;;
6007;SDS011;3032;49.484;11.112;2023-02-01T02:54:30;5.63;;;5.13;;
6007;SDS011;3032;49.484;11.112;2023-02-01T02:57:13;9.20;;;6.43;;
6007;SDS011;3032;49.484;11.112;2023-02-01T03:00:20;9.05;;;5.75;;
6007;SDS011;3032;49.484;11.112;2023-02-01T03:03:07;5.65;;;5.05;;
6007;SDS011;3032;49.484;11.112;2023-02-01T03:05:51;6.05;;;5.53;;
6007;SDS011;3032;49.484;11.112;2023-02-01T03:08:20;8.37;;;5.50;;
6007;SDS011;3032;49.484;11.112;2023-02-01T03:13:38;6.60;;;6.00;;
6007;SDS011;3032;49.484;11.112;2023-02-01T03:16:24;6.05;;;5.55;;
6007;SDS011;3032;49.484;11.112;2023-02-01T03:24:12;6.95;;;6.25;;
6007;SDS011;3032;49.484;11.112;2023-02-01T03:26:47;6.55;;;5.82;;
6007;SDS011;3032;49.484;11.112;2023-02-01T03:29:18;9.32;;;7.35;;
6007;SDS011;3032;49.484;11.112;2023-02-01T03:31:49;9.07;;;7.60;;
6007;SDS011;3032;49.484;11.112;2023-02-01T03:34:15;6.68;;;6.00;;
6007;SDS011;3032;49.484;11.112;2023-02-01T03:39:27;8.82;;;6.85;;
6007;SDS011;3032;49.484;11.112;2023-02-01T03:42:04;7.38;;;6.25;;
6007;SDS011;3032;49.484;11.112;2023-02-01T03:44:57;7.03;;;6.32;;
6007;SDS011;3032;49.484;11.112;2023-02-01T03:47:33;8.07;;;6.70;;
6007;SDS011;3032;49.484;11.112;2023-02-01T03:50:04;8.20;;;7.40;;
6007;SDS011;3032;49.484;11.112;2023-02-01T03:52:38;8.38;;;6.80;;
6007;SDS011;3032;49.484;11.112;2023-02-01T03:55:09;13.95;;;7.63;;
6007;SDS011;3032;49.484;11.112;2023-02-01T03:57:39;11.98;;;7.97;;
6007;SDS011;3032;49.484;11.112;2023-02-01T04:00:14;9.02;;;8.13;;
6007;SDS011;3032;49.484;11.112;2023-02-01T04:02:42;10.25;;;7.25;;
6007;SDS011;3032;49.484;11.112;2023-02-01T04:05:08;8.83;;;7.93;;
6007;SDS011;3032;49.484;11.112;2023-02-01T04:07:34;10.43;;;8.17;;
6007;SDS011;3032;49.484;11.112;2023-02-01T04:09:59;9.33;;;7.80;;
6007;SDS011;3032;49.484;11.112;2023-02-01T04:12:25;8.33;;;7.53;;
6007;SDS011;3032;49.484;11.112;2023-02-01T04:14:51;8.20;;;7.07;;
6007;SDS011;3032;49.484;11.112;2023-02-01T04:17:16;8.60;;;7.67;;
6007;SDS011;3032;49.484;11.112;2023-02-01T04:19:42;10.50;;;7.90;;
6007;SDS011;3032;49.484;11.112;2023-02-01T04:22:07;9.50;;;7.47;;
6007;SDS011;3032;49.484;11.112;2023-02-01T04:24:33;7.27;;;6.30;;
6007;SDS011;3032;49.484;11.112;2023-02-01T04:26:58;8.90;;;6.70;;
6007;SDS011;3032;49.484;11.112;2023-02-01T04:29:24;10.70;;;7.87;;
6007;SDS011;3032;49.484;11.112;2023-02-01T04:31:49;7.57;;;6.73;;
6007;SDS011;3032;49.484;11.112;2023-02-01T04:34:15;6.93;;;6.23;;
6007;SDS011;3032;49.484;11.112;2023-02-01T04:36:41;8.30;;;7.33;;
6007;SDS011;3032;49.484;11.112;2023-02-01T04:39:08;10.10;;;7.63;;
6007;SDS011;3032;49.484;11.112;2023-02-01T04:41:34;8.68;;;7.75;;
6007;SDS011;3032;49.484;11.112;2023-02-01T04:44:00;8.83;;;7.20;;
6007;SDS011;3032;49.484;11.112;2023-02-01T04:46:26;9.07;;;7.93;;
6007;SDS011;3032;49.484;11.112;2023-02-01T04:48:51;10.27;;;7.37;;
6007;SDS011;3032;49.484;11.112;2023-02-01T04:51:17;11.80;;;8.10;;
6007;SDS011;3032;49.484;11.112;2023-02-01T04:53:43;8.30;;;7.10;;
6007;SDS011;3032;49.484;11.112;2023-02-01T04:56:09;9.40;;;7.57;;
6007;SDS011;3032;49.484;11.112;2023-02-01T04:58:35;11.50;;;8.07;;
6007;SDS011;3032;49.484;11.112;2023-02-01T05:01:04;8.90;;;8.00;;
6007;SDS011;3032;49.484;11.112;2023-02-01T05:03:34;10.27;;;8.77;;
6007;SDS011;3032;49.484;11.112;2023-02-01T05:06:00;9.18;;;8.13;;
6007;SDS011;3032;49.484;11.112;2023-02-01T05:08:26;10.30;;;8.63;;
6007;SDS011;3032;49.484;11.112;2023-02-01T05:10:53;10.05;;;8.23;;
6007;SDS011;3032;49.484;11.112;2023-02-01T05:13:19;8.57;;;7.67;;
6007;SDS011;3032;49.484;11.112;2023-02-01T05:16:23;12.18;;;8.73;;
6007;SDS011;3032;49.484;11.112;2023-02-01T05:18:48;11.50;;;9.40;;
6007;SDS011;3032;49.484;11.112;2023-02-01T05:21:14;10.67;;;8.53;;
6007;SDS011;3032;49.484;11.112;2023-02-01T05:23:40;9.03;;;8.10;;
6007;SDS011;3032;49.484;11.112;2023-02-01T05:26:24;8.25;;;7.43;;
6007;SDS011;3032;49.484;11.112;2023-02-01T05:28:50;10.00;;;7.80;;
6007;SDS011;3032;49.484;11.112;2023-02-01T05:31:16;9.53;;;6.57;;
6007;SDS011;3032;49.484;11.112;2023-02-01T05:33:41;9.30;;;4.97;;
6007;SDS011;3032;49.484;11.112;2023-02-01T05:36:07;5.43;;;3.40;;
6007;SDS011;3032;49.484;11.112;2023-02-01T05:38:33;3.60;;;3.30;;
6007;SDS011;3032;49.484;11.112;2023-02-01T05:40:58;4.80;;;4.30;;
6007;SDS011;3032;49.484;11.112;2023-02-01T05:43:24;5.03;;;3.90;;
6007;SDS011;3032;49.484;11.112;2023-02-01T05:45:51;6.00;;;5.03;;
6007;SDS011;3032;49.484;11.112;2023-02-01T05:48:17;7.88;;;6.18;;
6007;SDS011;3032;49.484;11.112;2023-02-01T05:50:43;8.88;;;6.93;;
6007;SDS011;3032;49.484;11.112;2023-02-01T05:53:09;8.60;;;6.40;;
6007;SDS011;3032;49.484;11.112;2023-02-01T05:55:35;7.90;;;7.10;;
6007;SDS011;3032;49.484;11.112;2023-02-01T05:58:01;9.98;;;7.22;;
6007;SDS011;3032;49.484;11.112;2023-02-01T06:00:27;10.90;;;6.30;;
6007;SDS011;3032;49.484;11.112;2023-02-01T06:02:52;6.97;;;4.87;;
6007;SDS011;3032;49.484;11.112;2023-02-01T06:05:18;9.17;;;5.07;;
6007;SDS011;3032;49.484;11.112;2023-02-01T06:07:43;5.27;;;4.50;;
6007;SDS011;3032;49.484;11.112;2023-02-01T06:10:09;7.20;;;5.37;;
6007;SDS011;3032;49.484;11.112;2023-02-01T06:12:35;9.67;;;3.30;;
6007;SDS011;3032;49.484;11.112;2023-02-01T06:15:01;3.83;;;3.50;;
6007;SDS011;3032;49.484;11.112;2023-02-01T06:17:26;3.13;;;2.93;;
6007;SDS011;3032;49.484;11.112;2023-02-01T06:19:52;4.50;;;3.67;;
6007;SDS011;3032;49.484;11.112;2023-02-01T06:22:17;2.97;;;2.67;;
6007;SDS011;3032;49.484;11.112;2023-02-01T06:24:43;3.33;;;2.90;;
6007;SDS011;3032;49.484;11.112;2023-02-01T06:27:08;3.53;;;2.80;;
6007;SDS011;3032;49.484;11.112;2023-02-01T06:29:35;3.70;;;3.40;;
6007;SDS011;3032;49.484;11.112;2023-02-01T06:32:01;3.30;;;3.00;;
6007;SDS011;3032;49.484;11.112;2023-02-01T06:34:28;2.97;;;2.78;;
6007;SDS011;3032;49.484;11.112;2023-02-01T06:36:53;3.43;;;3.23;;
6007;SDS011;3032;49.484;11.112;2023-02-01T06:39:19;3.70;;;2.90;;
6007;SDS011;3032;49.484;11.112;2023-02-01T06:41:46;3.37;;;3.17;;
6007;SDS011;3032;49.484;11.112;2023-02-01T06:44:12;4.90;;;4.50;;
6007;SDS011;3032;49.484;11.112;2023-02-01T06:46:37;3.67;;;3.47;;
6007;SDS011;3032;49.484;11.112;2023-02-01T06:49:03;4.53;;;3.43;;
6007;SDS011;3032;49.484;11.112;2023-02-01T06:51:29;3.60;;;3.30;;
6007;SDS011;3032;49.484;11.112;2023-02-01T06:53:54;3.23;;;3.00;;
6007;SDS011;3032;49.484;11.112;2023-02-01T06:56:20;11.60;;;8.25;;
6007;SDS011;3032;49.484;11.112;2023-02-01T06:58:46;3.03;;;2.90;;
6007;SDS011;3032;49.484;11.112;2023-02-01T07:01:12;3.20;;;3.00;;
6007;SDS011;3032;49.484;11.112;2023-02-01T07:03:39;2.30;;;2.20;;
6007;SDS011;3032;49.484;11.112;2023-02-01T07:06:05;3.00;;;2.70;;
6007;SDS011;3032;49.484;11.112;2023-02-01T07:08:32;2.85;;;2.75;;
6007;SDS011;3032;49.484;11.112;2023-02-01T07:11:07;5.18;;;3.13;;
6007;SDS011;3032;49.484;11.112;2023-02-01T07:13:34;3.45;;;3.15;;
6007;SDS011;3032;49.484;11.112;2023-02-01T07:16:04;2.97;;;2.80;;
6007;SDS011;3032;49.484;11.112;2023-02-01T07:18:31;5.07;;;2.85;;
6007;SDS011;3032;49.484;11.112;2023-02-01T07:20:57;4.93;;;2.50;;
6007;SDS011;3032;49.484;11.112;2023-02-01T07:23:23;3.22;;;3.03;;
6007;SDS011;3032;49.484;11.112;2023-02-01T07:25:52;3.10;;;2.90;;
6007;SDS011;3032;49.484;11.112;2023-02-01T07:28:22;3.42;;;3.13;;
6007;SDS011;3032;49.484;11.112;2023-02-01T07:30:47;4.72;;;3.17;;
6007;SDS011;3032;49.484;11.112;2023-02-01T07:33:17;3.10;;;2.90;;
6007;SDS011;3032;49.484;11.112;2023-02-01T07:35:43;3.03;;;2.83;;
6007;SDS011;3032;49.484;11.112;2023-02-01T07:38:09;3.63;;;2.93;;
6007;SDS011;3032;49.484;11.112;2023-02-01T07:40:34;3.50;;;3.20;;
6007;SDS011;3032;49.484;11.112;2023-02-01T07:43:00;3.80;;;3.50;;
6007;SDS011;3032;49.484;11.112;2023-02-01T07:45:25;3.70;;;3.20;;
6007;SDS011;3032;49.484;11.112;2023-02-01T07:47:51;3.40;;;3.10;;
6007;SDS011;3032;49.484;11.112;2023-02-01T07:50:18;3.65;;;3.08;;
6007;SDS011;3032;49.484;11.112;2023-02-01T07:52:44;4.03;;;3.30;;
6007;SDS011;3032;49.484;11.112;2023-02-01T07:55:09;4.43;;;3.80;;
6007;SDS011;3032;49.484;11.112;2023-02-01T07:57:35;3.03;;;2.80;;
6007;SDS011;3032;49.484;11.112;2023-02-01T08:00:00;3.67;;;3.10;;
6007;SDS011;3032;49.484;11.112;2023-02-01T08:02:45;3.20;;;2.90;;
6007;SDS011;3032;49.484;11.112;2023-02-01T08:05:10;6.33;;;2.90;;
6007;SDS011;3032;49.484;11.112;2023-02-01T08:07:36;3.93;;;2.83;;
6007;SDS011;3032;49.484;11.112;2023-02-01T08:10:01;3.07;;;2.83;;
6007;SDS011;3032;49.484;11.112;2023-02-01T08:12:30;3.25;;;2.92;;
6007;SDS011;3032;49.484;11.112;2023-02-01T08:14:56;5.90;;;2.47;;
6007;SDS011;3032;49.484;11.112;2023-02-01T08:17:21;4.47;;;3.20;;
6007;SDS011;3032;49.484;11.112;2023-02-01T08:19:47;2.90;;;2.57;;
6007;SDS011;3032;49.484;11.112;2023-02-01T08:22:12;5.90;;;2.97;;
6007;SDS011;3032;49.484;11.112;2023-02-01T08:24:38;3.83;;;2.47;;
6007;SDS011;3032;49.484;11.112;2023-02-01T08:27:05;3.25;;;2.50;;
6007;SDS011;3032;49.484;11.112;2023-02-01T08:29:31;6.30;;;2.70;;
6007;SDS011;3032;49.484;11.112;2023-02-01T08:31:56;4.43;;;2.47;;
6007;SDS011;3032;49.484;11.112;2023-02-01T08:34:22;6.80;;;2.63;;
6007;SDS011;3032;49.484;11.112;2023-02-01T08:36:48;2.40;;;2.20;;
6007;SDS011;3032;49.484;11.112;2023-02-01T08:39:14;2.70;;;2.33;;
6007;SDS011;3032;49.484;11.112;2023-02-01T08:41:39;4.95;;;2.50;;
6007;SDS011;3032;49.484;11.112;2023-02-01T08:44:07;4.15;;;2.40;;
6007;SDS011;3032;49.484;11.112;2023-02-01T08:46:32;2.60;;;2.20;;
6007;SDS011;3032;49.484;11.112;2023-02-01T08:48:58;3.20;;;1.90;;
6007;SDS011;3032;49.484;11.112;2023-02-01T08:51:24;2.23;;;2.00;;
6007;SDS011;3032;49.484;11.112;2023-02-01T08:53:50;3.80;;;2.20;;
6007;SDS011;3032;49.484;11.112;2023-02-01T08:56:15;3.63;;;2.30;;
6007;SDS011;3032;49.484;11.112;2023-02-01T08:58:42;2.92;;;2.10;;
6007;SDS011;3032;49.484;11.112;2023-02-01T09:01:09;4.97;;;2.50;;
6007;SDS011;3032;49.484;11.112;2023-02-01T09:03:37;5.10;;;2.17;;
6007;SDS011;3032;49.484;11.112;2023-02-01T09:06:03;6.93;;;2.37;;
6007;SDS011;3032;49.484;11.112;2023-02-01T09:08:30;4.10;;;3.42;;
6007;SDS011;3032;49.484;11.112;2023-02-01T09:11:00;4.15;;;2.90;;
6007;SDS011;3032;49.484;11.112;2023-02-01T09:13:26;6.32;;;3.53;;
6007;SDS011;3032;49.484;11.112;2023-02-01T09:15:52;3.95;;;2.83;;
6007;SDS011;3032;49.484;11.112;2023-02-01T09:18:18;4.33;;;3.87;;
6007;SDS011;3032;49.484;11.112;2023-02-01T09:20:43;4.63;;;3.70;;
6007;SDS011;3032;49.484;11.112;2023-02-01T09:23:09;4.73;;;3.50;;
6007;SDS011;3032;49.484;11.112;2023-02-01T09:25:36;9.33;;;3.20;;
6007;SDS011;3032;49.484;11.112;2023-02-01T09:28:03;3.55;;;3.25;;
6007;SDS011;3032;49.484;11.112;2023-02-01T09:30:30;3.60;;;3.30;;
6007;SDS011;3032;49.484;11.112;2023-02-01T09:32:57;6.50;;;3.15;;
6007;SDS011;3032;49.484;11.112;2023-02-01T09:35:22;5.80;;;3.53;;
6007;SDS011;3032;49.484;11.112;2023-02-01T09:37:48;8.03;;;2.40;;
6007;SDS011;3032;49.484;11.112;2023-02-01T09:40:14;5.27;;;2.00;;
6007;SDS011;3032;49.484;11.112;2023-02-01T09:47:55;4.60;;;2.03;;
6007;SDS011;3032;49.484;11.112;2023-02-01T09:50:28;8.30;;;2.03;;
6007;SDS011;3032;49.484;11.112;2023-02-01T09:55:41;4.63;;;1.70;;
6007;SDS011;3032;49.484;11.112;2023-02-01T09:58:12;7.32;;;2.35;;
6007;SDS011;3032;49.484;11.112;2023-02-01T10:00:39;4.20;;;1.65;;
6007;SDS011;3032;49.484;11.112;2023-02-01T10:03:12;2.08;;;1.70;;
6007;SDS011;3032;49.484;11.112;2023-02-01T10:06:16;4.07;;;1.95;;
6007;SDS011;3032;49.484;11.112;2023-02-01T10:11:34;5.57;;;2.05;;
6007;SDS011;3032;49.484;11.112;2023-02-01T10:19:32;3.95;;;2.05;;
6007;SDS011;3032;49.484;11.112;2023-02-01T10:22:09;3.60;;;2.53;;
6007;SDS011;3032;49.484;11.112;2023-02-01T10:27:13;4.57;;;2.92;;
6007;SDS011;3032;49.484;11.112;2023-02-01T10:29:40;7.32;;;3.00;;
6007;SDS011;3032;49.484;11.112;2023-02-01T10:32:17;3.90;;;2.80;;
6007;SDS011;3032;49.484;11.112;2023-02-01T10:34:48;6.32;;;3.22;;
6007;SDS011;3032;49.484;11.112;2023-02-01T10:37:30;9.00;;;3.28;;
6007;SDS011;3032;49.484;11.112;2023-02-01T10:39:59;5.10;;;3.17;;
6007;SDS011;3032;49.484;11.112;2023-02-01T10:42:30;6.10;;;2.92;;
6007;SDS011;3032;49.484;11.112;2023-02-01T10:44:56;8.37;;;4.10;;
6007;SDS011;3032;49.484;11.112;2023-02-01T10:47:25;9.35;;;3.40;;
6007;SDS011;3032;49.484;11.112;2023-02-01T10:49:55;11.57;;;3.50;;
6007;SDS011;3032;49.484;11.112;2023-02-01T10:52:30;8.65;;;3.45;;
6007;SDS011;3032;49.484;11.112;2023-02-01T10:58:05;5.50;;;3.50;;
6007;SDS011;3032;49.484;11.112;2023-02-01T11:00:41;7.75;;;3.67;;
6007;SDS011;3032;49.484;11.112;2023-02-01T11:03:19;5.63;;;3.20;;
6007;SDS011;3032;49.484;11.112;2023-02-01T11:05:46;8.05;;;4.18;;
6007;SDS011;3032;49.484;11.112;2023-02-01T11:08:16;6.25;;;3.13;;
6007;SDS011;3032;49.484;11.112;2023-02-01T11:10:43;4.70;;;2.88;;
6007;SDS011;3032;49.484;11.112;2023-02-01T11:13:16;7.50;;;3.30;;
6007;SDS011;3032;49.484;11.112;2023-02-01T11:15:44;18.63;;;5.28;;
6007;SDS011;3032;49.484;11.112;2023-02-01T11:18:15;10.18;;;4.88;;
6007;SDS011;3032;49.484;11.112;2023-02-01T11:20:42;6.15;;;4.60;;
6007;SDS011;3032;49.484;11.112;2023-02-01T11:23:16;13.13;;;5.43;;
6007;SDS011;3032;49.484;11.112;2023-02-01T11:25:52;19.85;;;6.88;;
6007;SDS011;3032;49.484;11.112;2023-02-01T11:28:24;12.60;;;5.03;;
6007;SDS011;3032;49.484;11.112;2023-02-01T11:30:53;15.52;;;6.03;;
6007;SDS011;3032;49.484;11.112;2023-02-01T11:33:23;13.77;;;5.07;;
6007;SDS011;3032;49.484;11.112;2023-02-01T11:35:54;8.02;;;4.50;;
6007;SDS011;3032;49.484;11.112;2023-02-01T11:38:30;11.10;;;4.10;;
6007;SDS011;3032;49.484;11.112;2023-02-01T11:46:19;6.90;;;3.13;;
6007;SDS011;3032;49.484;11.112;2023-02-01T11:48:49;7.15;;;2.70;;
6007;SDS011;3032;49.484;11.112;2023-02-01T11:51:24;6.85;;;3.15;;
6007;SDS011;3032;49.484;11.112;2023-02-01T11:56:36;8.40;;;3.40;;
6007;SDS011;3032;49.484;11.112;2023-02-01T12:02:11;9.05;;;3.42;;
6007;SDS011;3032;49.484;11.112;2023-02-01T12:05:03;6.30;;;3.22;;
6007;SDS011;3032;49.484;11.112;2023-02-01T12:07:52;6.47;;;2.83;;
6007;SDS011;3032;49.484;11.112;2023-02-01T12:27:01;8.65;;;3.70;;
6007;SDS011;3032;49.484;11.112;2023-02-01T12:29:35;9.65;;;3.10;;
6007;SDS011;3032;49.484;11.112;2023-02-01T12:32:36;11.18;;;3.30;;
6007;SDS011;3032;49.484;11.112;2023-02-01T12:38:03;8.93;;;3.10;;
6007;SDS011;3032;49.484;11.112;2023-02-01T12:43:17;7.82;;;2.97;;
6007;SDS011;3032;49.484;11.112;2023-02-01T12:46:02;5.85;;;2.83;;
6007;SDS011;3032;49.484;11.112;2023-02-01T12:49:09;6.13;;;2.58;;
6007;SDS011;3032;49.484;11.112;2023-02-01T12:51:29;9.80;;;2.42;;
6007;SDS011;3032;49.484;11.112;2023-02-01T12:54:04;10.88;;;2.95;;
6007;SDS011;3032;49.484;11.112;2023-02-01T12:56:41;10.65;;;3.08;;
6007;SDS011;3032;49.484;11.112;2023-02-01T12:59:15;8.45;;;2.75;;
6007;SDS011;3032;49.484;11.112;2023-02-01T13:01:46;11.45;;;3.40;;
6007;SDS011;3032;49.484;11.112;2023-02-01T13:04:36;8.52;;;3.25;;
6007;SDS011;3032;49.484;11.112;2023-02-01T13:07:19;4.63;;;2.42;;
6007;SDS011;3032;49.484;11.112;2023-02-01T13:10:15;9.88;;;2.63;;
6007;SDS011;3032;49.484;11.112;2023-02-01T13:12:59;6.78;;;3.28;;
6007;SDS011;3032;49.484;11.112;2023-02-01T13:15:41;4.95;;;2.33;;
6007;SDS011;3032;49.484;11.112;2023-02-01T13:18:16;7.68;;;2.90;;
6007;SDS011;3032;49.484;11.112;2023-02-01T13:23:56;15.20;;;3.15;;
6007;SDS011;3032;49.484;11.112;2023-02-01T13:26:16;8.43;;;2.75;;
6007;SDS011;3032;49.484;11.112;2023-02-01T13:39:43;6.95;;;3.97;;
6007;SDS011;3032;49.484;11.112;2023-02-01T13:42:30;9.05;;;4.00;;
6007;SDS011;3032;49.484;11.112;2023-02-01T13:49:52;7.90;;;3.17;;
6007;SDS011;3032;49.484;11.112;2023-02-01T13:52:24;7.95;;;2.55;;
6007;SDS011;3032;49.484;11.112;2023-02-01T13:57:45;6.65;;;2.40;;
6007;SDS011;3032;49.484;11.112;2023-02-01T14:00:29;7.13;;;2.20;;
6007;SDS011;3032;49.484;11.112;2023-02-01T14:26:18;5.18;;;2.50;;
6007;SDS011;3032;49.484;11.112;2023-02-01T14:28:54;5.22;;;2.33;;
6007;SDS011;3032;49.484;11.112;2023-02-01T14:34:11;9.57;;;2.63;;
6007;SDS011;3032;49.484;11.112;2023-02-01T14:36:54;5.93;;;3.30;;
6007;SDS011;3032;49.484;11.112;2023-02-01T14:42:03;7.20;;;2.42;;
6007;SDS011;3032;49.484;11.112;2023-02-01T14:44:37;9.20;;;3.17;;
6007;SDS011;3032;49.484;11.112;2023-02-01T14:47:08;6.93;;;2.90;;
6007;SDS011;3032;49.484;11.112;2023-02-01T14:49:38;10.20;;;3.85;;
6007;SDS011;3032;49.484;11.112;2023-02-01T14:52:15;13.48;;;3.80;;
6007;SDS011;3032;49.484;11.112;2023-02-01T14:54:44;8.52;;;3.00;;
6007;SDS011;3032;49.484;11.112;2023-02-01T14:57:18;9.32;;;2.70;;
6007;SDS011;3032;49.484;11.112;2023-02-01T14:59:45;10.82;;;3.33;;
6007;SDS011;3032;49.484;11.112;2023-02-01T15:02:20;11.57;;;3.30;;
6007;SDS011;3032;49.484;11.112;2023-02-01T15:04:50;12.93;;;2.42;;
6007;SDS011;3032;49.484;11.112;2023-02-01T15:07:19;7.00;;;3.55;;
6007;SDS011;3032;49.484;11.112;2023-02-01T15:09:47;6.25;;;2.65;;
6007;SDS011;3032;49.484;11.112;2023-02-01T15:12:17;9.25;;;2.95;;
6007;SDS011;3032;49.484;11.112;2023-02-01T15:17:41;9.18;;;2.65;;
6007;SDS011;3032;49.484;11.112;2023-02-01T15:22:35;6.13;;;2.55;;
6007;SDS011;3032;49.484;11.112;2023-02-01T15:25:01;9.30;;;2.43;;
6007;SDS011;3032;49.484;11.112;2023-02-01T15:27:28;6.80;;;2.67;;
6007;SDS011;3032;49.484;11.112;2023-02-01T15:29:54;12.25;;;2.72;;
6007;SDS011;3032;49.484;11.112;2023-02-01T15:32:35;7.45;;;3.15;;
6007;SDS011;3032;49.484;11.112;2023-02-01T15:35:03;5.95;;;2.55;;
6007;SDS011;3032;49.484;11.112;2023-02-01T15:37:30;12.30;;;3.08;;
6007;SDS011;3032;49.484;11.112;2023-02-01T15:42:55;6.20;;;3.05;;
6007;SDS011;3032;49.484;11.112;2023-02-01T15:45:27;11.93;;;3.58;;
6007;SDS011;3032;49.484;11.112;2023-02-01T15:47:54;10.05;;;3.53;;
6007;SDS011;3032;49.484;11.112;2023-02-01T15:50:22;3.67;;;2.65;;
6007;SDS011;3032;49.484;11.112;2023-02-01T15:52:49;10.75;;;2.97;;
6007;SDS011;3032;49.484;11.112;2023-02-01T15:55:36;8.52;;;2.55;;
6007;SDS011;3032;49.484;11.112;2023-02-01T15:58:08;6.13;;;2.50;;
6007;SDS011;3032;49.484;11.112;2023-02-01T16:06:03;14.75;;;2.63;;
6007;SDS011;3032;49.484;11.112;2023-02-01T16:08:31;7.30;;;2.55;;
6007;SDS011;3032;49.484;11.112;2023-02-01T16:11:01;5.07;;;2.10;;
6007;SDS011;3032;49.484;11.112;2023-02-01T16:13:27;9.00;;;2.08;;
6007;SDS011;3032;49.484;11.112;2023-02-01T16:15:52;3.63;;;2.00;;
6007;SDS011;3032;49.484;11.112;2023-02-01T16:18:18;8.03;;;2.77;;
6007;SDS011;3032;49.484;11.112;2023-02-01T16:20:44;6.60;;;2.30;;
6007;SDS011;3032;49.484;11.112;2023-02-01T16:23:10;9.52;;;2.70;;
6007;SDS011;3032;49.484;11.112;2023-02-01T16:25:36;4.80;;;1.83;;
6007;SDS011;3032;49.484;11.112;2023-02-01T16:28:03;11.07;;;2.67;;
6007;SDS011;3032;49.484;11.112;2023-02-01T16:30:30;18.67;;;3.95;;
6007;SDS011;3032;49.484;11.112;2023-02-01T16:32:56;8.23;;;1.83;;
6007;SDS011;3032;49.484;11.112;2023-02-01T16:35:33;9.20;;;2.30;;
6007;SDS011;3032;49.484;11.112;2023-02-01T16:38:09;4.57;;;2.10;;
6007;SDS011;3032;49.484;11.112;2023-02-01T16:40:40;10.65;;;2.67;;
6007;SDS011;3032;49.484;11.112;2023-02-01T16:43:14;7.53;;;2.30;;
6007;SDS011;3032;49.484;11.112;2023-02-01T16:45:42;8.60;;;2.42;;
6007;SDS011;3032;49.484;11.112;2023-02-01T16:48:34;5.47;;;2.58;;
6007;SDS011;3032;49.484;11.112;2023-02-01T16:51:04;4.70;;;2.13;;
6007;SDS011;3032;49.484;11.112;2023-02-01T16:53:35;11.38;;;2.45;;
6007;SDS011;3032;49.484;11.112;2023-02-01T16:56:01;8.83;;;2.80;;
6007;SDS011;3032;49.484;11.112;2023-02-01T16:58:29;6.80;;;2.40;;
6007;SDS011;3032;49.484;11.112;2023-02-01T17:00:55;8.90;;;3.73;;
6007;SDS011;3032;49.484;11.112;2023-02-01T17:03:21;6.97;;;2.23;;
6007;SDS011;3032;49.484;11.112;2023-02-01T17:05:51;4.72;;;2.15;;
6007;SDS011;3032;49.484;11.112;2023-02-01T17:08:22;7.28;;;2.53;;
6007;SDS011;3032;49.484;11.112;2023-02-01T17:10:55;6.72;;;2.25;;
6007;SDS011;3032;49.484;11.112;2023-02-01T17:13:24;9.48;;;2.80;;
6007;SDS011;3032;49.484;11.112;2023-02-01T17:15:54;7.40;;;2.03;;
6007;SDS011;3032;49.484;11.112;2023-02-01T17:18:23;7.88;;;2.58;;
6007;SDS011;3032;49.484;11.112;2023-02-01T17:20:50;5.35;;;2.25;;
6007;SDS011;3032;49.484;11.112;2023-02-01T17:23:17;4.45;;;1.98;;
6007;SDS011;3032;49.484;11.112;2023-02-01T17:25:43;4.95;;;2.80;;
6007;SDS011;3032;49.484;11.112;2023-02-01T17:28:09;6.67;;;1.90;;
6007;SDS011;3032;49.484;11.112;2023-02-01T17:30:35;12.43;;;2.63;;
6007;SDS011;3032;49.484;11.112;2023-02-01T17:33:02;8.23;;;2.00;;
6007;SDS011;3032;49.484;11.112;2023-02-01T17:35:29;6.10;;;2.30;;
6007;SDS011;3032;49.484;11.112;2023-02-01T17:37:56;6.28;;;2.50;;
6007;SDS011;3032;49.484;11.112;2023-02-01T17:40:21;12.73;;;3.40;;
6007;SDS011;3032;49.484;11.112;2023-02-01T17:42:48;5.15;;;1.80;;
6007;SDS011;3032;49.484;11.112;2023-02-01T17:45:35;5.68;;;2.42;;
6007;SDS011;3032;49.484;11.112;2023-02-01T17:48:05;8.40;;;2.58;;
6007;SDS011;3032;49.484;11.112;2023-02-01T17:50:32;8.13;;;2.40;;
6007;SDS011;3032;49.484;11.112;2023-02-01T17:53:00;10.27;;;2.60;;
6007;SDS011;3032;49.484;11.112;2023-02-01T17:55:27;11.52;;;2.55;;